x

Lake Winnipeg S. Basin (45140) Wave Buoy

12:00pm - Fri 23rd Jun 2017 All times are UTC.

  • Sig Wave height 2.6ft
  • Peak Period 4s
  • Wind
    22mph, 27mph gusts
  • Sea Temp 61°f
  • Air Temp 58°f
  • Sea Pressure 1005.5mb

More Historic Weather Station data

Upgrade to MSW Pro to gain access to the past 30 days of data for over 8000 Wavebouys and Weather Stations around the globe.

Join Pro

Comparision Forecast

View Surf forecast
   
Fri 06/23 12:00pm 2.5ft 4s 22 27 mph 1005.5mb 61f 58f
10:00am 2.5ft 4s 22 29 mph 1003.8mb 61f 58f
9:00am 2.5ft 4s 20 27 mph 1003.1mb 61f 57f
8:00am 2.5ft 4s 22 27 mph 1002.6mb 61f 58f
7:00am 2.5ft 4s 22 25 mph 1002.2mb 61f 57f
6:00am 2.5ft 4s 20 25 mph 1001.9mb 61f 56f
5:00am 2.5ft 3s 22 27 mph 1001.3mb 61f 57f
4:00am 2ft 3s 22 27 mph 1000.9mb 61f 58f
3:00am 1.3ft 2s 18 20 mph 1000.1mb 61f 58f
2:00am 1.3ft 3s 13 16 mph 999.5mb 61f 58f
1:00am 1.6ft 3s 9 13 mph 999.4mb 61f 57f
Thu 06/22 11:00pm 2.5ft 4s 20 25 mph 999mb 61f 59f
10:00pm 2.5ft 4s 20 27 mph 998.9mb 61f 61f
9:00pm 2.5ft 4s 22 27 mph 999.2mb 61f 61f
8:00pm 2.5ft 4s 20 27 mph 999mb 61f 61f
7:00pm 2.5ft 3s 13 18 mph 999.3mb 61f 60f
6:00pm 3ft 4s 22 27 mph 999.4mb 61f 61f
5:00pm 2.5ft 4s 22 29 mph 998.9mb 62f 64f
4:00pm 2ft 4s 20 27 mph 999.1mb 61f 63f
3:00pm 1.6ft 3s 20
mph
999.7mb 61f 63f
2:00pm 1.6ft 4s 18 20 mph 1000.2mb 61f 61f
1:00pm 2ft 3s 18 22 mph 1000.7mb 61f 60f
12:00pm 1.6ft 3s 20 22 mph 1000.9mb 61f 59f
11:00am 0.7ft 2s 16 20 mph 1000.9mb 61f 59f
10:00am 0.7ft 2s 9 11 mph 1000.6mb 61f 60f
9:00am 1ft 2s 9 9 mph 1001mb 61f 60f
8:00am 1ft 3s 7 9 mph 1001.3mb 61f 60f
7:00am 1.3ft 2s 11 13 mph 1001.3mb 61f 61f
6:00am  -   -  16
mph
1001mb - 62f
5:00am 1.3ft 3s 13 18 mph 1001mb 61f 61f
4:00am 1.3ft 3s 13 16 mph 1001.5mb 61f 61f
3:00am 1.3ft 3s 13 16 mph 1001.7mb 61f 60f
2:00am 1.3ft 4s 9 16 mph 1001.9mb 61f 60f
1:00am 2ft 4s 11 13 mph 1001.7mb 61f 60f
12:00am 2ft 4s 18 20 mph 1002.1mb 61f 60f
Wed 06/21 11:00pm 2.5ft 4s 18 20 mph 1002.5mb 61f 61f
10:00pm 3ft 5s 18 25 mph 1003.1mb 61f 61f
9:00pm 3.5ft 4s 20 25 mph 1003.9mb 61f 60f
8:00pm 3ft 4s 20 25 mph 1004.6mb 61f 60f
7:00pm 2.5ft 4s 20
mph
1004.6mb 62f 60f
6:00pm 2.5ft 4s 18 22 mph 1005.9mb 62f 60f
5:00pm  -   -  18
mph
- - 61f
4:00pm 1.6ft 3s 18 22 mph 1007.2mb 62f 64f
3:00pm 1.6ft 3s 13 16 mph 1007.2mb 62f 63f
2:00pm 1.3ft 3s 16 18 mph 1007.7mb 62f 62f
1:00pm 1.3ft 3s 16 18 mph 1008.8mb 62f 61f
12:00pm 1ft 3s 13 16 mph 1009mb 62f 62f
11:00am 0.7ft 2s 11 13 mph 1009.2mb 62f 62f
10:00am 0.7ft 2s 9 9 mph 1010mb 63f 62f
9:00am 0.3ft 3s 9 11 mph 1010mb 63f 62f
8:00am 0.3ft 3s 7 9 mph 1010.3mb 63f 63f
7:00am 0.3ft 2s 4 7 mph 1010.9mb 63f 62f
6:00am 0.3ft 2s 4 4 mph 1011.1mb 62f 63f
5:00am 0.3ft 2s 7 7 mph 1011.6mb 63f 64f
4:00am 0.3ft 2s 7 7 mph 1011.8mb 63f 64f
3:00am 0.3ft 2s 4 7 mph 1011.8mb 63f 64f
2:00am 0.3ft 2s 7 7 mph 1011.8mb 63f 65f
1:00am 0.3ft 2s 7 7 mph 1012.3mb 64f 65f
12:00am 0.7ft 2s 9 9 mph 1012.2mb 64f 65f
Tue 06/20 11:00pm 0.7ft 2s 9 11 mph 1012.5mb 65f 66f
10:00pm 0.3ft 3s 9 11 mph 1013mb 66f 66f
9:00pm  -  3s 7 9 mph 1013.4mb 67f 66f
8:00pm  -  2s 7 9 mph 1013.8mb 67f 65f
7:00pm  -  2s 4 4 mph 1014.1mb 64f 64f
6:00pm 0.3ft 2s 4 4 mph 1014.4mb 64f 63f
3:00pm 0.7ft 2s 4 7 mph 1014.8mb 62f 58f
2:00pm 0.7ft 2s 7 9 mph 1014.8mb 61f 58f
12:00pm 0.7ft 2s 9 11 mph 1014mb 61f 56f
11:00am 1ft 3s 9 11 mph 1013.3mb 61f 57f
10:00am 1ft 3s 11 13 mph 1012.9mb 61f 56f
9:00am 1.3ft 3s 13 13 mph 1012.8mb 61f 56f
8:00am 1ft 3s 13 16 mph 1012.6mb 61f 57f
7:00am 1ft 2s 13 16 mph 1012.4mb 61f 57f
6:00am 0.7ft 2s 9 11 mph 1012.3mb 62f 59f
5:00am 0.7ft 2s 9 13 mph 1012.3mb 62f 60f
4:00am 0.3ft 2s 11 13 mph 1011.8mb 63f 61f
3:00am 0.3ft 3s 4 7 mph 1011.4mb 63f 62f
2:00am  -  2s 9 16 mph 1011.1mb 64f 62f
1:00am 0.3ft 2s 2 4 mph 1010.9mb 65f 62f
12:00am 0.3ft 2s 4 4 mph 1011.1mb 66f 63f
Mon 06/19 11:00pm 0.3ft 2s 2 2 mph 1011.4mb 67f 63f
10:00pm 0.3ft 2s 2 4 mph 1011.6mb 65f 62f
9:00pm 0.3ft 2s  -  0 mph 1011.6mb 64f 62f
8:00pm 0.7ft 2s 4 4 mph 1012.1mb 63f 60f
7:00pm 0.7ft 2s 7 9 mph 1012.4mb 62f 60f
6:00pm 0.7ft 3s 7 9 mph 1012.5mb 61f 59f
5:00pm 1ft 3s 9 11 mph 1012.6mb 61f 58f
4:00pm 1ft 3s 13 16 mph 1012.6mb 61f 57f
3:00pm 1ft 3s 13 16 mph 1012.5mb 61f 57f
2:00pm 1ft 3s 9 13 mph 1012.3mb 61f 57f